sensor_id;sensor_type;location;lat;lon;timestamp;pressure;altitude;pressure_sealevel;temperature;humidity
44044;BME280;29709;52.396;16.796;2023-02-15T00:02:50;103488.44;;;0.89;71.82
44044;BME280;29709;52.396;16.796;2023-02-15T00:06:20;103490.49;;;0.79;71.94
44044;BME280;29709;52.396;16.796;2023-02-15T00:09:23;103481.48;;;0.79;71.59
44044;BME280;29709;52.396;16.796;2023-02-15T00:12:26;103485.12;;;0.78;71.79
44044;BME280;29709;52.396;16.796;2023-02-15T00:15:29;103489.70;;;0.76;71.54
44044;BME280;29709;52.396;16.796;2023-02-15T00:18:33;103486.20;;;0.71;72.02
44044;BME280;29709;52.396;16.796;2023-02-15T00:21:37;103470.01;;;0.69;72.08
44044;BME280;29709;52.396;16.796;2023-02-15T00:24:41;103470.09;;;0.66;72.20
44044;BME280;29709;52.396;16.796;2023-02-15T00:27:44;103471.03;;;0.65;73.30
44044;BME280;29709;52.396;16.796;2023-02-15T00:30:47;103471.91;;;0.66;73.17
44044;BME280;29709;52.396;16.796;2023-02-15T00:33:50;103473.79;;;0.62;72.94
44044;BME280;29709;52.396;16.796;2023-02-15T00:37:20;103478.45;;;0.57;73.00
44044;BME280;29709;52.396;16.796;2023-02-15T00:40:24;103465.80;;;0.57;72.86
44044;BME280;29709;52.396;16.796;2023-02-15T00:43:29;103461.40;;;0.53;73.08
44044;BME280;29709;52.396;16.796;2023-02-15T00:46:33;103459.64;;;0.51;73.56
44044;BME280;29709;52.396;16.796;2023-02-15T00:49:36;103455.99;;;0.53;73.43
44044;BME280;29709;52.396;16.796;2023-02-15T00:52:40;103450.54;;;0.55;73.09
44044;BME280;29709;52.396;16.796;2023-02-15T00:55:43;103453.28;;;0.53;73.20
44044;BME280;29709;52.396;16.796;2023-02-15T00:58:46;103453.28;;;0.53;73.28
44044;BME280;29709;52.396;16.796;2023-02-15T01:01:49;103455.06;;;0.54;72.71
44044;BME280;29709;52.396;16.796;2023-02-15T01:04:53;103447.88;;;0.53;72.29
44044;BME280;29709;52.396;16.796;2023-02-15T01:08:22;103450.72;;;0.47;72.46
44044;BME280;29709;52.396;16.796;2023-02-15T01:11:25;103453.52;;;0.44;72.46
44044;BME280;29709;52.396;16.796;2023-02-15T01:14:28;103443.63;;;0.43;72.27
44044;BME280;29709;52.396;16.796;2023-02-15T01:17:31;103441.81;;;0.44;72.13
44044;BME280;29709;52.396;16.796;2023-02-15T01:20:36;103437.38;;;0.40;71.92
44044;BME280;29709;52.396;16.796;2023-02-15T01:23:43;103435.78;;;0.33;72.07
44044;BME280;29709;52.396;16.796;2023-02-15T01:26:46;103441.27;;;0.28;72.58
44044;BME280;29709;52.396;16.796;2023-02-15T01:29:49;103435.11;;;0.23;72.72
44044;BME280;29709;52.396;16.796;2023-02-15T01:32:52;103443.23;;;0.23;72.69
44044;BME280;29709;52.396;16.796;2023-02-15T01:35:57;103426.08;;;0.24;72.46
44044;BME280;29709;52.396;16.796;2023-02-15T01:39:26;103428.86;;;0.21;72.82
44044;BME280;29709;52.396;16.796;2023-02-15T01:42:29;103420.66;;;0.24;72.55
44044;BME280;29709;52.396;16.796;2023-02-15T01:45:33;103412.59;;;0.22;72.79
44044;BME280;29709;52.396;16.796;2023-02-15T01:48:43;103418.92;;;0.21;72.89
44044;BME280;29709;52.396;16.796;2023-02-15T01:51:50;103414.32;;;0.25;72.92
44044;BME280;29709;52.396;16.796;2023-02-15T01:54:55;103417.82;;;0.28;72.98
44044;BME280;29709;52.396;16.796;2023-02-15T01:58:00;103415.08;;;0.32;73.12
44044;BME280;29709;52.396;16.796;2023-02-15T02:01:04;103417.73;;;0.33;72.40
44044;BME280;29709;52.396;16.796;2023-02-15T02:04:47;103407.09;;;0.25;72.17
44044;BME280;29709;52.396;16.796;2023-02-15T02:07:52;103403.60;;;0.20;72.51
44044;BME280;29709;52.396;16.796;2023-02-15T02:10:57;103403.60;;;0.20;72.28
44044;BME280;29709;52.396;16.796;2023-02-15T02:14:00;103407.27;;;0.18;72.28
44044;BME280;29709;52.396;16.796;2023-02-15T02:33:54;103381.51;;;0.03;71.68
44044;BME280;29709;52.396;16.796;2023-02-15T02:40:53;103370.07;;;-0.08;71.51
44044;BME280;29709;52.396;16.796;2023-02-15T02:47:19;103352.43;;;-0.24;72.70
44044;BME280;29709;52.396;16.796;2023-02-15T02:50:29;103356.86;;;-0.22;72.24
44044;BME280;29709;52.396;16.796;2023-02-15T02:53:34;103354.21;;;-0.23;72.71
44044;BME280;29709;52.396;16.796;2023-02-15T02:57:08;103354.21;;;-0.23;72.19
44044;BME280;29709;52.396;16.796;2023-02-15T03:00:18;103352.48;;;-0.26;72.77
44044;BME280;29709;52.396;16.796;2023-02-15T03:03:32;103352.52;;;-0.27;73.04
44044;BME280;29709;52.396;16.796;2023-02-15T03:06:46;103343.43;;;-0.25;72.65
44044;BME280;29709;52.396;16.796;2023-02-15T03:09:54;103340.69;;;-0.23;73.34
44044;BME280;29709;52.396;16.796;2023-02-15T03:12:59;103342.43;;;-0.21;73.10
44044;BME280;29709;52.396;16.796;2023-02-15T03:16:28;103334.36;;;-0.22;72.92
44044;BME280;29709;52.396;16.796;2023-02-15T03:19:34;103329.84;;;-0.22;73.16
44044;BME280;29709;52.396;16.796;2023-02-15T03:22:42;103332.55;;;-0.22;72.80
44044;BME280;29709;52.396;16.796;2023-02-15T03:25:52;103337.06;;;-0.22;73.84
44044;BME280;29709;52.396;16.796;2023-02-15T03:29:02;103334.31;;;-0.21;75.32
44044;BME280;29709;52.396;16.796;2023-02-15T03:32:09;103334.27;;;-0.18;75.60
44044;BME280;29709;52.396;16.796;2023-02-15T03:35:14;103331.34;;;-0.09;76.59
44044;BME280;29709;52.396;16.796;2023-02-15T03:38:29;103327.49;;;0.02;74.94
44044;BME280;29709;52.396;16.796;2023-02-15T03:45:19;103330.80;;;0.13;77.09
44044;BME280;29709;52.396;16.796;2023-02-15T03:48:30;103326.15;;;0.18;75.02
44044;BME280;29709;52.396;16.796;2023-02-15T03:51:37;103327.13;;;0.15;74.90
44044;BME280;29709;52.396;16.796;2023-02-15T03:54:43;103318.16;;;0.13;74.78
44044;BME280;29709;52.396;16.796;2023-02-15T03:57:48;103319.09;;;0.12;74.94
44044;BME280;29709;52.396;16.796;2023-02-15T04:01:28;103315.50;;;0.12;76.08
44044;BME280;29709;52.396;16.796;2023-02-15T04:04:37;103315.56;;;0.09;75.76
44044;BME280;29709;52.396;16.796;2023-02-15T04:07:41;103310.11;;;0.12;78.04
44044;BME280;29709;52.396;16.796;2023-02-15T04:11:10;103306.42;;;0.14;76.80
44044;BME280;29709;52.396;16.796;2023-02-15T04:14:13;103311.68;;;0.19;76.27
44044;BME280;29709;52.396;16.796;2023-02-15T04:17:28;103300.96;;;0.16;75.71
44044;BME280;29709;52.396;16.796;2023-02-15T04:20:32;103292.90;;;0.14;76.74
44044;BME280;29709;52.396;16.796;2023-02-15T04:23:47;103295.61;;;0.14;78.07
44044;BME280;29709;52.396;16.796;2023-02-15T04:27:03;103297.51;;;0.11;77.91
44044;BME280;29709;52.396;16.796;2023-02-15T04:30:33;103301.05;;;0.13;77.60
44044;BME280;29709;52.396;16.796;2023-02-15T04:33:36;103290.23;;;0.13;78.43
44044;BME280;29709;52.396;16.796;2023-02-15T04:36:40;103294.77;;;0.12;78.85
44044;BME280;29709;52.396;16.796;2023-02-15T04:39:43;103287.41;;;0.17;78.61
44044;BME280;29709;52.396;16.796;2023-02-15T04:42:49;103284.64;;;0.19;77.67
44044;BME280;29709;52.396;16.796;2023-02-15T04:45:53;103284.59;;;0.22;77.82
44044;BME280;29709;52.396;16.796;2023-02-15T04:48:56;103275.45;;;0.26;78.27
44044;BME280;29709;52.396;16.796;2023-02-15T04:51:59;103283.62;;;0.24;77.13
44044;BME280;29709;52.396;16.796;2023-02-15T04:55:03;103276.43;;;0.23;77.52
44044;BME280;29709;52.396;16.796;2023-02-15T04:58:06;103279.92;;;0.27;78.79
44044;BME280;29709;52.396;16.796;2023-02-15T05:01:35;103281.84;;;0.23;78.42
44044;BME280;29709;52.396;16.796;2023-02-15T05:04:38;103278.30;;;0.20;78.20
44044;BME280;29709;52.396;16.796;2023-02-15T05:07:41;103274.56;;;0.25;77.73
44044;BME280;29709;52.396;16.796;2023-02-15T05:10:44;103274.43;;;0.30;77.82
44044;BME280;29709;52.396;16.796;2023-02-15T05:13:47;103268.99;;;0.32;77.33
44044;BME280;29709;52.396;16.796;2023-02-15T05:16:50;103268.96;;;0.33;78.01
44044;BME280;29709;52.396;16.796;2023-02-15T05:19:54;103267.04;;;0.37;77.75
44044;BME280;29709;52.396;16.796;2023-02-15T05:22:57;103277.06;;;0.33;77.83
44044;BME280;29709;52.396;16.796;2023-02-15T05:26:00;103277.86;;;0.37;77.54
44044;BME280;29709;52.396;16.796;2023-02-15T05:29:40;103277.02;;;0.35;77.16
44044;BME280;29709;52.396;16.796;2023-02-15T05:32:44;103277.22;;;0.27;77.02
44044;BME280;29709;52.396;16.796;2023-02-15T05:35:47;103281.14;;;0.15;77.67
44044;BME280;29709;52.396;16.796;2023-02-15T05:38:50;103278.64;;;0.08;78.50
44044;BME280;29709;52.396;16.796;2023-02-15T05:41:53;103277.75;;;0.07;78.06
44044;BME280;29709;52.396;16.796;2023-02-15T05:44:56;103271.41;;;0.08;77.40
44044;BME280;29709;52.396;16.796;2023-02-15T05:47:59;103277.84;;;0.04;77.36
44044;BME280;29709;52.396;16.796;2023-02-15T05:51:08;103279.70;;;0.02;77.96
44044;BME280;29709;52.396;16.796;2023-02-15T05:54:11;103267.99;;;0.02;78.63
44044;BME280;29709;52.396;16.796;2023-02-15T05:57:14;103274.20;;;0.05;78.97
44044;BME280;29709;52.396;16.796;2023-02-15T06:00:43;103281.34;;;0.08;78.15
44044;BME280;29709;52.396;16.796;2023-02-15T06:03:46;103275.74;;;0.15;79.32
44044;BME280;29709;52.396;16.796;2023-02-15T06:06:50;103274.70;;;0.21;78.60
44044;BME280;29709;52.396;16.796;2023-02-15T06:09:53;103273.68;;;0.25;78.22
44044;BME280;29709;52.396;16.796;2023-02-15T06:12:56;103266.49;;;0.24;78.10
44044;BME280;29709;52.396;16.796;2023-02-15T06:15:59;103264.58;;;0.27;78.11
44044;BME280;29709;52.396;16.796;2023-02-15T06:19:03;103263.65;;;0.28;77.98
44044;BME280;29709;52.396;16.796;2023-02-15T06:22:06;103262.72;;;0.29;77.89
44044;BME280;29709;52.396;16.796;2023-02-15T06:25:09;103264.54;;;0.29;77.51
44044;BME280;29709;52.396;16.796;2023-02-15T06:28:14;103256.60;;;0.23;78.22
44044;BME280;29709;52.396;16.796;2023-02-15T06:31:44;103267.49;;;0.20;78.08
44044;BME280;29709;52.396;16.796;2023-02-15T06:34:47;103255.77;;;0.21;78.44
44044;BME280;29709;52.396;16.796;2023-02-15T06:37:50;103260.06;;;0.28;79.12
44044;BME280;29709;52.396;16.796;2023-02-15T06:40:53;103238.30;;;0.33;78.00
44044;BME280;29709;52.396;16.796;2023-02-15T06:43:57;103253.61;;;0.34;78.45
44044;BME280;29709;52.396;16.796;2023-02-15T06:47:00;103241.65;;;0.42;79.28
44044;BME280;29709;52.396;16.796;2023-02-15T06:50:07;103245.77;;;0.55;79.64
44044;BME280;29709;52.396;16.796;2023-02-15T06:53:10;103247.13;;;0.70;78.47
44044;BME280;29709;52.396;16.796;2023-02-15T06:56:14;103246.81;;;0.81;78.32
44044;BME280;29709;52.396;16.796;2023-02-15T06:59:17;103244.71;;;0.91;78.82
44044;BME280;29709;52.396;16.796;2023-02-15T07:02:46;103242.12;;;0.88;78.90
44044;BME280;29709;52.396;16.796;2023-02-15T07:05:49;103242.56;;;1.02;78.77
44044;BME280;29709;52.396;16.796;2023-02-15T07:08:56;103245.05;;;1.09;78.90
44044;BME280;29709;52.396;16.796;2023-02-15T07:11:59;103241.27;;;1.15;78.45
44044;BME280;29709;52.396;16.796;2023-02-15T07:15:16;103242.93;;;1.19;78.01
44044;BME280;29709;52.396;16.796;2023-02-15T07:18:20;103230.98;;;1.26;78.75
44044;BME280;29709;52.396;16.796;2023-02-15T07:21:23;103238.78;;;1.35;79.25
44044;BME280;29709;52.396;16.796;2023-02-15T07:24:26;103233.07;;;1.44;78.07
44044;BME280;29709;52.396;16.796;2023-02-15T07:28:00;103232.88;;;1.51;78.40
44044;BME280;29709;52.396;16.796;2023-02-15T07:31:05;103225.45;;;1.57;78.43
44044;BME280;29709;52.396;16.796;2023-02-15T07:34:08;103225.09;;;1.68;78.17
44044;BME280;29709;52.396;16.796;2023-02-15T07:37:12;103219.44;;;1.74;77.86
44044;BME280;29709;52.396;16.796;2023-02-15T07:40:15;103214.95;;;1.73;78.34
44044;BME280;29709;52.396;16.796;2023-02-15T07:43:18;103207.57;;;1.78;78.25
44044;BME280;29709;52.396;16.796;2023-02-15T07:46:21;103209.22;;;1.82;78.42
44044;BME280;29709;52.396;16.796;2023-02-15T07:49:25;103210.85;;;1.88;78.65
44044;BME280;29709;52.396;16.796;2023-02-15T07:52:28;103218.75;;;1.94;79.02
44044;BME280;29709;52.396;16.796;2023-02-15T07:55:31;103212.89;;;2.06;78.97
44044;BME280;29709;52.396;16.796;2023-02-15T07:58:34;103209.91;;;2.14;79.02
44044;BME280;29709;52.396;16.796;2023-02-15T08:02:15;103209.20;;;2.09;79.35
44044;BME280;29709;52.396;16.796;2023-02-15T08:05:18;103202.45;;;2.20;79.30
44044;BME280;29709;52.396;16.796;2023-02-15T08:08:21;103203.64;;;2.37;79.29
44044;BME280;29709;52.396;16.796;2023-02-15T08:11:35;103190.61;;;2.46;79.18
44044;BME280;29709;52.396;16.796;2023-02-15T08:14:39;103184.14;;;2.50;79.33
44044;BME280;29709;52.396;16.796;2023-02-15T08:17:42;103178.34;;;2.59;79.53
44044;BME280;29709;52.396;16.796;2023-02-15T08:20:51;103167.19;;;2.67;79.05
44044;BME280;29709;52.396;16.796;2023-02-15T08:23:55;103163.44;;;2.71;79.06
44044;BME280;29709;52.396;16.796;2023-02-15T08:27:24;103164.41;;;2.69;79.48
44044;BME280;29709;52.396;16.796;2023-02-15T08:30:29;103167.73;;;2.77;79.53
44044;BME280;29709;52.396;16.796;2023-02-15T08:33:33;103158.07;;;2.92;79.48
44044;BME280;29709;52.396;16.796;2023-02-15T08:36:36;103161.20;;;3.04;79.60
44044;BME280;29709;52.396;16.796;2023-02-15T08:39:39;103164.28;;;3.17;79.06
44044;BME280;29709;52.396;16.796;2023-02-15T08:42:45;103161.20;;;3.26;79.00
44044;BME280;29709;52.396;16.796;2023-02-15T08:45:48;103154.51;;;3.35;78.58
44044;BME280;29709;52.396;16.796;2023-02-15T08:48:52;103153.62;;;3.34;78.46
44044;BME280;29709;52.396;16.796;2023-02-15T08:51:55;103148.72;;;3.42;78.66
44044;BME280;29709;52.396;16.796;2023-02-15T08:54:58;103144.55;;;3.56;78.71
44044;BME280;29709;52.396;16.796;2023-02-15T08:58:28;103143.69;;;3.75;78.75
44044;BME280;29709;52.396;16.796;2023-02-15T09:01:34;103134.16;;;3.86;78.40
44044;BME280;29709;52.396;16.796;2023-02-15T09:04:37;103131.63;;;4.01;78.00
44044;BME280;29709;52.396;16.796;2023-02-15T09:07:40;103131.01;;;4.15;78.23
44044;BME280;29709;52.396;16.796;2023-02-15T09:10:44;103122.96;;;4.32;77.88
44044;BME280;29709;52.396;16.796;2023-02-15T09:13:47;103124.94;;;4.48;77.74
44044;BME280;29709;52.396;16.796;2023-02-15T09:16:52;103118.98;;;4.58;76.68
44044;BME280;29709;52.396;16.796;2023-02-15T09:19:55;103118.88;;;4.61;76.66
44044;BME280;29709;52.396;16.796;2023-02-15T09:22:59;103118.19;;;4.75;75.88
44044;BME280;29709;52.396;16.796;2023-02-15T09:26:31;103120.84;;;4.77;76.14
44044;BME280;29709;52.396;16.796;2023-02-15T09:29:34;103119.44;;;4.87;76.08
44044;BME280;29709;52.396;16.796;2023-02-15T09:32:37;103108.89;;;4.98;75.57
44044;BME280;29709;52.396;16.796;2023-02-15T09:35:40;103100.84;;;5.14;75.29
44044;BME280;29709;52.396;16.796;2023-02-15T09:38:50;103108.48;;;5.25;75.01
44044;BME280;29709;52.396;16.796;2023-02-15T09:48:59;103102.69;;;5.13;73.89
44044;BME280;29709;52.396;16.796;2023-02-15T09:55:32;103093.64;;;5.30;73.42
44044;BME280;29709;52.396;16.796;2023-02-15T10:05:42;103070.25;;;5.43;72.79
44044;BME280;29709;52.396;16.796;2023-02-15T10:19:10;103058.52;;;5.76;72.87
44044;BME280;29709;52.396;16.796;2023-02-15T10:25:37;103050.98;;;5.98;72.08
44044;BME280;29709;52.396;16.796;2023-02-15T10:29:06;103047.39;;;6.14;71.60
44044;BME280;29709;52.396;16.796;2023-02-15T10:35:24;103037.05;;;6.36;70.07
44044;BME280;29709;52.396;16.796;2023-02-15T10:38:39;103047.28;;;6.48;70.09
44044;BME280;29709;52.396;16.796;2023-02-15T10:41:54;103047.70;;;6.56;69.28
44044;BME280;29709;52.396;16.796;2023-02-15T10:45:12;103038.91;;;6.67;68.24
44044;BME280;29709;52.396;16.796;2023-02-15T10:48:25;103032.38;;;6.70;68.87
44044;BME280;29709;52.396;16.796;2023-02-15T10:54:49;103018.05;;;6.96;68.35
44044;BME280;29709;52.396;16.796;2023-02-15T11:07:47;102999.35;;;7.34;67.04
44044;BME280;29709;52.396;16.796;2023-02-15T11:10:54;102993.90;;;7.48;67.41
44044;BME280;29709;52.396;16.796;2023-02-15T11:14:10;102988.65;;;7.60;66.88
44044;BME280;29709;52.396;16.796;2023-02-15T11:17:21;102994.42;;;7.55;66.44
44044;BME280;29709;52.396;16.796;2023-02-15T11:23:43;102995.59;;;7.79;66.31
44044;BME280;29709;52.396;16.796;2023-02-15T11:30:14;102987.89;;;7.86;65.70
44044;BME280;29709;52.396;16.796;2023-02-15T11:33:26;102984.18;;;7.87;65.44
44044;BME280;29709;52.396;16.796;2023-02-15T11:36:37;102983.80;;;7.93;65.46
44044;BME280;29709;52.396;16.796;2023-02-15T11:39:43;102979.98;;;7.96;65.35
44044;BME280;29709;52.396;16.796;2023-02-15T11:43:28;102980.26;;;8.05;65.26
44044;BME280;29709;52.396;16.796;2023-02-15T11:46:27;102968.71;;;8.15;64.41
44044;BME280;29709;52.396;16.796;2023-02-15T11:49:33;102960.95;;;8.21;64.52
44044;BME280;29709;52.396;16.796;2023-02-15T11:52:37;102967.71;;;8.30;63.91
44044;BME280;29709;52.396;16.796;2023-02-15T11:55:45;102960.16;;;8.33;63.73
44044;BME280;29709;52.396;16.796;2023-02-15T11:58:58;102951.26;;;8.30;62.79
44044;BME280;29709;52.396;16.796;2023-02-15T12:02:02;102948.31;;;8.33;63.70
44044;BME280;29709;52.396;16.796;2023-02-15T12:05:31;102946.45;;;8.33;63.55
44044;BME280;29709;52.396;16.796;2023-02-15T12:08:43;102944.70;;;8.47;64.13
44044;BME280;29709;52.396;16.796;2023-02-15T12:11:48;102943.41;;;8.52;63.01
44044;BME280;29709;52.396;16.796;2023-02-15T12:14:55;102941.43;;;8.54;63.01
44044;BME280;29709;52.396;16.796;2023-02-15T12:17:58;102940.53;;;8.68;62.81
44044;BME280;29709;52.396;16.796;2023-02-15T12:27:34;102923.70;;;8.87;62.58
44044;BME280;29709;52.396;16.796;2023-02-15T12:30:42;102915.72;;;8.96;61.74
44044;BME280;29709;52.396;16.796;2023-02-15T12:33:46;102913.63;;;9.00;62.06
44044;BME280;29709;52.396;16.796;2023-02-15T12:37:23;102922.28;;;8.94;61.71
44044;BME280;29709;52.396;16.796;2023-02-15T12:40:28;102911.77;;;9.01;61.62
44044;BME280;29709;52.396;16.796;2023-02-15T12:43:35;102905.17;;;9.03;61.38
44044;BME280;29709;52.396;16.796;2023-02-15T12:46:39;102899.34;;;8.95;60.95
44044;BME280;29709;52.396;16.796;2023-02-15T12:49:44;102908.03;;;9.02;60.87
44044;BME280;29709;52.396;16.796;2023-02-15T12:52:50;102901.21;;;8.94;61.15
44044;BME280;29709;52.396;16.796;2023-02-15T12:56:00;102898.17;;;8.99;61.18
44044;BME280;29709;52.396;16.796;2023-02-15T12:59:05;102897.84;;;9.04;61.21
44044;BME280;29709;52.396;16.796;2023-02-15T13:02:44;102894.90;;;9.07;61.24
44044;BME280;29709;52.396;16.796;2023-02-15T13:05:51;102896.55;;;9.09;60.88
44044;BME280;29709;52.396;16.796;2023-02-15T13:08:59;102888.97;;;9.13;60.62
44044;BME280;29709;52.396;16.796;2023-02-15T13:15:29;102883.16;;;9.30;61.22
44044;BME280;29709;52.396;16.796;2023-02-15T13:18:39;102877.33;;;9.35;60.61
44044;BME280;29709;52.396;16.796;2023-02-15T13:21:48;102870.33;;;9.31;60.69
44044;BME280;29709;52.396;16.796;2023-02-15T13:24:55;102875.57;;;9.34;60.48
44044;BME280;29709;52.396;16.796;2023-02-15T13:28:03;102877.11;;;9.38;60.69
44044;BME280;29709;52.396;16.796;2023-02-15T13:34:33;102871.31;;;9.30;60.30
44044;BME280;29709;52.396;16.796;2023-02-15T13:41:02;102862.73;;;9.34;60.40
44044;BME280;29709;52.396;16.796;2023-02-15T13:47:27;102872.84;;;9.34;60.29
44044;BME280;29709;52.396;16.796;2023-02-15T14:07:44;102841.34;;;9.26;61.35
44044;BME280;29709;52.396;16.796;2023-02-15T14:10:57;102844.30;;;9.23;61.46
44044;BME280;29709;52.396;16.796;2023-02-15T14:21:01;102828.61;;;9.00;62.57
44044;BME280;29709;52.396;16.796;2023-02-15T14:23:57;102824.23;;;8.98;62.08
44044;BME280;29709;52.396;16.796;2023-02-15T14:27:15;102834.40;;;8.95;62.00
44044;BME280;29709;52.396;16.796;2023-02-15T14:30:25;102820.16;;;8.90;62.16
44044;BME280;29709;52.396;16.796;2023-02-15T14:33:33;102823.12;;;8.87;61.88
44044;BME280;29709;52.396;16.796;2023-02-15T14:36:38;102817.53;;;8.89;62.05
44044;BME280;29709;52.396;16.796;2023-02-15T14:46:57;102824.88;;;8.88;62.11
44044;BME280;29709;52.396;16.796;2023-02-15T14:56:29;102828.49;;;8.76;61.84
44044;BME280;29709;52.396;16.796;2023-02-15T15:00:28;102824.62;;;8.66;62.05
44044;BME280;29709;52.396;16.796;2023-02-15T15:03:21;102816.70;;;8.61;62.01
44044;BME280;29709;52.396;16.796;2023-02-15T15:06:29;102804.10;;;8.59;62.29
44044;BME280;29709;52.396;16.796;2023-02-15T15:09:44;102802.34;;;8.58;62.29
44044;BME280;29709;52.396;16.796;2023-02-15T15:12:47;102801.48;;;8.57;62.38
44044;BME280;29709;52.396;16.796;2023-02-15T15:15:53;102794.44;;;8.53;62.27
44044;BME280;29709;52.396;16.796;2023-02-15T15:22:36;102793.23;;;8.45;62.83
44044;BME280;29709;52.396;16.796;2023-02-15T15:25:46;102785.87;;;8.45;62.96
44044;BME280;29709;52.396;16.796;2023-02-15T15:28:53;102779.71;;;8.42;62.87
44044;BME280;29709;52.396;16.796;2023-02-15T15:31:59;102781.69;;;8.39;63.06
44044;BME280;29709;52.396;16.796;2023-02-15T15:41:43;102776.55;;;8.21;63.13
44044;BME280;29709;52.396;16.796;2023-02-15T15:45:02;102772.59;;;8.12;63.44
44044;BME280;29709;52.396;16.796;2023-02-15T15:51:20;102775.98;;;8.03;63.86
44044;BME280;29709;52.396;16.796;2023-02-15T15:54:27;102772.75;;;7.96;63.87
44044;BME280;29709;52.396;16.796;2023-02-15T15:58:01;102766.80;;;7.90;64.04
44044;BME280;29709;52.396;16.796;2023-02-15T16:01:08;102764.49;;;7.84;64.47
44044;BME280;29709;52.396;16.796;2023-02-15T16:07:28;102759.63;;;7.74;64.34
44044;BME280;29709;52.396;16.796;2023-02-15T16:10:33;102756.52;;;7.66;64.39
44044;BME280;29709;52.396;16.796;2023-02-15T16:13:41;102754.28;;;7.59;64.57
44044;BME280;29709;52.396;16.796;2023-02-15T16:16:51;102754.81;;;7.51;64.91
44044;BME280;29709;52.396;16.796;2023-02-15T16:20:04;102750.80;;;7.42;64.77
44044;BME280;29709;52.396;16.796;2023-02-15T16:23:21;102747.79;;;7.33;65.19
44044;BME280;29709;52.396;16.796;2023-02-15T16:44:06;102742.42;;;6.74;66.68
44044;BME280;29709;52.396;16.796;2023-02-15T16:50:36;102732.48;;;6.73;66.43
44044;BME280;29709;52.396;16.796;2023-02-15T16:53:40;102728.36;;;6.66;66.63
44044;BME280;29709;52.396;16.796;2023-02-15T16:57:18;102723.09;;;6.49;66.92
44044;BME280;29709;52.396;16.796;2023-02-15T17:00:26;102717.32;;;6.39;67.32
44044;BME280;29709;52.396;16.796;2023-02-15T17:03:31;102724.98;;;6.32;67.98
44044;BME280;29709;52.396;16.796;2023-02-15T17:06:34;102717.97;;;6.28;67.61
44044;BME280;29709;52.396;16.796;2023-02-15T17:12:56;102707.72;;;6.18;67.95
44044;BME280;29709;52.396;16.796;2023-02-15T17:16:30;102708.07;;;6.12;68.28
44044;BME280;29709;52.396;16.796;2023-02-15T17:22:29;102703.36;;;5.99;68.77
44044;BME280;29709;52.396;16.796;2023-02-15T17:26:10;102703.70;;;5.93;68.63
44044;BME280;29709;52.396;16.796;2023-02-15T17:29:20;102692.08;;;5.90;68.53
44044;BME280;29709;52.396;16.796;2023-02-15T17:32:24;102692.36;;;5.85;69.21
44044;BME280;29709;52.396;16.796;2023-02-15T17:35:33;102684.16;;;5.85;69.21
44044;BME280;29709;52.396;16.796;2023-02-15T17:38:37;102695.18;;;5.84;69.27
44044;BME280;29709;52.396;16.796;2023-02-15T17:41:41;102692.52;;;5.82;70.04
44044;BME280;29709;52.396;16.796;2023-02-15T17:45:13;102701.69;;;5.81;69.68
44044;BME280;29709;52.396;16.796;2023-02-15T17:51:33;102690.52;;;5.86;70.30
44044;BME280;29709;52.396;16.796;2023-02-15T17:54:37;102688.41;;;5.91;69.99
44044;BME280;29709;52.396;16.796;2023-02-15T17:57:52;102701.08;;;5.92;69.89
44044;BME280;29709;52.396;16.796;2023-02-15T18:00:57;102707.51;;;5.91;69.79
44044;BME280;29709;52.396;16.796;2023-02-15T18:04:14;102703.89;;;5.90;69.97
44044;BME280;29709;52.396;16.796;2023-02-15T18:07:30;102699.31;;;5.91;69.85
44044;BME280;29709;52.396;16.796;2023-02-15T18:10:45;102696.74;;;5.88;69.54
44044;BME280;29709;52.396;16.796;2023-02-15T18:14:00;102690.53;;;5.70;69.29
44044;BME280;29709;52.396;16.796;2023-02-15T18:17:33;102699.20;;;5.46;70.35
44044;BME280;29709;52.396;16.796;2023-02-15T18:20:37;102694.95;;;5.41;70.57
44044;BME280;29709;52.396;16.796;2023-02-15T18:23:40;102691.34;;;5.40;69.71
44044;BME280;29709;52.396;16.796;2023-02-15T18:26:44;102691.17;;;5.28;69.76
44044;BME280;29709;52.396;16.796;2023-02-15T18:29:48;102701.27;;;5.10;70.91
44044;BME280;29709;52.396;16.796;2023-02-15T18:32:53;102695.55;;;4.99;70.47
44044;BME280;29709;52.396;16.796;2023-02-15T18:36:01;102706.08;;;4.89;70.41
44044;BME280;29709;52.396;16.796;2023-02-15T18:39:30;102695.88;;;4.77;70.95
44044;BME280;29709;52.396;16.796;2023-02-15T18:42:35;102694.70;;;4.65;70.91
44044;BME280;29709;52.396;16.796;2023-02-15T18:45:36;102685.28;;;4.55;71.51
44044;BME280;29709;52.396;16.796;2023-02-15T18:48:43;102687.13;;;4.54;71.81
44044;BME280;29709;52.396;16.796;2023-02-15T18:51:48;102678.77;;;4.57;71.64
44044;BME280;29709;52.396;16.796;2023-02-15T18:55:25;102686.56;;;4.48;72.43
44044;BME280;29709;52.396;16.796;2023-02-15T18:58:30;102677.28;;;4.52;72.51
44044;BME280;29709;52.396;16.796;2023-02-15T19:01:33;102675.26;;;4.55;72.11
44044;BME280;29709;52.396;16.796;2023-02-15T19:04:36;102671.42;;;4.59;72.47
44044;BME280;29709;52.396;16.796;2023-02-15T19:07:40;102668.52;;;4.62;71.51
44044;BME280;29709;52.396;16.796;2023-02-15T19:10:50;102669.12;;;4.52;71.53
44044;BME280;29709;52.396;16.796;2023-02-15T19:13:53;102656.96;;;4.42;71.51
44044;BME280;29709;52.396;16.796;2023-02-15T19:16:58;102651.83;;;4.35;72.21
44044;BME280;29709;52.396;16.796;2023-02-15T19:20:36;102648.33;;;4.33;72.22
44044;BME280;29709;52.396;16.796;2023-02-15T19:23:40;102655.79;;;4.30;71.96
44044;BME280;29709;52.396;16.796;2023-02-15T19:26:44;102653.38;;;4.24;72.57
44044;BME280;29709;52.396;16.796;2023-02-15T19:29:51;102648.81;;;4.24;72.63
44044;BME280;29709;52.396;16.796;2023-02-15T19:32:59;102640.75;;;4.23;72.61
44044;BME280;29709;52.396;16.796;2023-02-15T19:36:05;102642.76;;;4.19;72.50